Fairfield, California
Current Conditions -  °F | °C
As of 1:58 AM on Sunday 23 Nov 2014 (Local Time) from KSUU Reporting Station
Clear Clear  
Wind Chill: 41°   Ceiling: Unl
Heat Index: 45°   Visibility: 10mi
Dew Point: 45°   Wind: 8mph
Humidity: 100%   Direction: 20°NNE
Pressure: 30.24"   Gusts: NA
Location:  38.25°N, 122.04°W
Report Text: KSUU 230958Z AUTO 02007KT 10SM CLR 07/07 A3024 RMK AO2 SLP247 T00720072 $
Loading
Personal Weather Stations






























Interactive Weather Map New forecast layout! Learn more

10-Day Weather Forecast

Advertisements
Track Severe Weather on mobile